createdAt,value
2022-11-13T00:01:20.884Z,8.57
2022-11-13T00:04:06.393Z,8.59
2022-11-13T00:06:56.289Z,8.63
2022-11-13T00:09:44.499Z,8.58
2022-11-13T00:12:29.929Z,8.54
2022-11-13T00:15:15.229Z,8.65
2022-11-13T00:18:02.701Z,8.68
2022-11-13T00:20:48.349Z,8.66
2022-11-13T00:23:34.992Z,8.66
2022-11-13T00:26:23.134Z,8.79
2022-11-13T00:29:09.132Z,8.72
2022-11-13T00:31:54.736Z,8.75
2022-11-13T00:34:48.320Z,8.91
2022-11-13T00:37:34.028Z,8.87
2022-11-13T00:40:19.344Z,8.86
2022-11-13T00:43:04.530Z,8.93
2022-11-13T00:45:50.193Z,8.80
2022-11-13T00:48:36.273Z,8.83
2022-11-13T00:51:22.231Z,8.90
2022-11-13T00:54:07.610Z,8.84
2022-11-13T00:56:52.868Z,8.99
2022-11-13T00:59:38.355Z,8.90
2022-11-13T01:02:23.521Z,9.04
2022-11-13T01:05:09.061Z,9.16
2022-11-13T01:07:54.371Z,9.06
2022-11-13T01:10:51.916Z,9.16
2022-11-13T01:13:43.940Z,9.29
2022-11-13T01:16:29.210Z,9.30
2022-11-13T01:19:14.642Z,9.16
2022-11-13T01:22:00.090Z,9.17
2022-11-13T01:24:48.407Z,9.23
2022-11-13T01:27:37.172Z,9.44
2022-11-13T01:30:22.819Z,9.33
2022-11-13T01:33:08.157Z,9.25
2022-11-13T01:35:53.442Z,9.35
2022-11-13T01:38:39.213Z,9.34
2022-11-13T01:41:30.990Z,9.48
2022-11-13T01:44:17.971Z,9.39
2022-11-13T01:47:03.775Z,9.40
2022-11-13T01:49:52.203Z,9.31
2022-11-13T01:52:39.313Z,9.44
2022-11-13T01:55:24.395Z,9.32
2022-11-13T01:58:10.673Z,9.34
2022-11-13T02:00:56.080Z,9.46
2022-11-13T02:03:41.471Z,9.44
2022-11-13T02:06:29.298Z,9.52
2022-11-13T02:09:16.815Z,9.48
2022-11-13T02:12:02.936Z,9.57
2022-11-13T02:14:52.989Z,9.50
2022-11-13T02:17:45.174Z,9.62
2022-11-13T02:20:38.200Z,9.62
2022-11-13T02:24:01.592Z,9.62
2022-11-13T02:26:47.428Z,9.62
2022-11-13T02:29:32.725Z,9.71
2022-11-13T02:32:18.390Z,9.59
2022-11-13T02:35:04.223Z,9.75
2022-11-13T02:37:49.584Z,9.67
2022-11-13T02:40:34.918Z,9.85
2022-11-13T02:43:20.335Z,9.86
2022-11-13T02:46:05.796Z,9.75
2022-11-13T02:48:51.170Z,9.82
2022-11-13T02:51:36.631Z,9.87
2022-11-13T02:54:21.878Z,9.93
2022-11-13T02:57:07.210Z,9.78
2022-11-13T02:59:52.649Z,9.89
2022-11-13T03:02:37.973Z,9.97
2022-11-13T03:05:23.461Z,10.02
2022-11-13T03:08:08.859Z,9.93
2022-11-13T03:10:54.408Z,9.94
2022-11-13T03:13:40.070Z,9.91
2022-11-13T03:16:25.443Z,9.98
2022-11-13T03:19:10.857Z,10.06
2022-11-13T03:21:56.230Z,10.07
2022-11-13T03:24:41.578Z,10.05
2022-11-13T03:27:26.744Z,10.05
2022-11-13T03:30:12.356Z,10.04
2022-11-13T03:32:58.255Z,10.06
2022-11-13T03:35:47.005Z,10.00
2022-11-13T03:38:32.651Z,10.24
2022-11-13T03:41:17.981Z,10.19
2022-11-13T03:44:03.378Z,10.20
2022-11-13T03:46:48.674Z,10.08
2022-11-13T03:49:33.844Z,10.11
2022-11-13T03:52:19.230Z,10.25
2022-11-13T03:55:04.851Z,10.21
2022-11-13T03:57:49.945Z,10.23
2022-11-13T04:00:36.143Z,10.22
2022-11-13T04:03:22.350Z,10.27
2022-11-13T04:06:07.651Z,10.46
2022-11-13T04:08:53.963Z,10.44
2022-11-13T04:11:39.174Z,10.33
2022-11-13T04:14:26.700Z,10.43
2022-11-13T04:17:11.891Z,10.53
2022-11-13T04:19:57.298Z,10.41
2022-11-13T04:22:42.725Z,10.31
2022-11-13T04:25:27.948Z,10.41
2022-11-13T04:28:13.789Z,10.41
2022-11-13T04:30:58.940Z,10.39
2022-11-13T04:33:44.284Z,10.39
2022-11-13T04:36:29.515Z,10.44
2022-11-13T04:39:14.616Z,10.40
2022-11-13T04:42:18.602Z,10.48
2022-11-13T04:45:04.233Z,10.42
2022-11-13T04:47:51.154Z,10.50
2022-11-13T04:50:36.848Z,10.47
2022-11-13T04:53:22.025Z,10.50
2022-11-13T04:56:07.265Z,10.52
2022-11-13T04:58:52.746Z,10.55
2022-11-13T05:01:38.069Z,10.54
2022-11-13T05:04:23.564Z,10.61
2022-11-13T05:07:08.824Z,10.61
2022-11-13T05:09:54.579Z,10.64
2022-11-13T05:12:39.968Z,10.62
2022-11-13T05:15:25.433Z,10.57
2022-11-13T05:18:10.940Z,10.52
2022-11-13T05:20:56.309Z,10.60
2022-11-13T05:23:41.634Z,10.60
2022-11-13T05:26:27.052Z,10.60
2022-11-13T05:29:12.456Z,10.68
2022-11-13T05:31:57.792Z,10.70
2022-11-13T05:34:43.048Z,10.74
2022-11-13T05:37:29.082Z,10.71
2022-11-13T05:40:14.489Z,10.76
2022-11-13T05:42:59.754Z,10.77
2022-11-13T05:45:45.063Z,10.79
2022-11-13T05:48:31.229Z,10.73
2022-11-13T05:51:26.554Z,10.71
2022-11-13T05:54:12.047Z,10.84
2022-11-13T05:56:57.318Z,10.79
2022-11-13T05:59:42.815Z,10.74
2022-11-13T06:02:28.147Z,10.69
2022-11-13T06:05:13.571Z,10.78
2022-11-13T06:08:00.094Z,10.87
2022-11-13T06:10:45.501Z,10.93
2022-11-13T06:13:31.084Z,10.90
2022-11-13T06:16:26.378Z,10.94
2022-11-13T06:19:12.159Z,10.96
2022-11-13T06:21:57.506Z,10.99
2022-11-13T06:24:42.612Z,10.93
2022-11-13T06:27:28.359Z,11.00
2022-11-13T06:30:14.299Z,10.96
2022-11-13T06:32:59.970Z,11.01
2022-11-13T06:35:45.530Z,11.00
2022-11-13T06:38:32.876Z,11.01
2022-11-13T06:41:20.818Z,10.93
2022-11-13T06:44:06.375Z,10.99
2022-11-13T06:46:51.794Z,11.02
2022-11-13T06:49:37.158Z,10.94
2022-11-13T06:52:23.670Z,10.99
2022-11-13T06:55:09.307Z,11.05
2022-11-13T06:57:55.657Z,11.05
2022-11-13T07:00:42.282Z,11.06
2022-11-13T07:03:27.897Z,11.01
2022-11-13T07:06:16.961Z,11.09
2022-11-13T07:09:02.438Z,11.02
2022-11-13T07:11:52.056Z,11.05
2022-11-13T07:14:37.544Z,11.14
2022-11-13T07:17:23.073Z,11.07
2022-11-13T07:20:09.484Z,11.02
2022-11-13T07:22:59.032Z,11.09
2022-11-13T07:25:44.624Z,11.06
2022-11-13T07:28:30.825Z,11.14
2022-11-13T07:31:17.781Z,11.08
2022-11-13T07:34:04.240Z,11.11
2022-11-13T07:36:49.579Z,11.06
2022-11-13T07:39:34.809Z,11.17
2022-11-13T07:42:20.131Z,11.21
2022-11-13T07:45:06.181Z,11.29
2022-11-13T07:47:51.598Z,11.24
2022-11-13T07:50:38.560Z,11.34
2022-11-13T07:53:24.172Z,11.50
2022-11-13T07:56:09.566Z,11.29
2022-11-13T07:58:55.008Z,11.25
2022-11-13T08:01:40.501Z,11.25
2022-11-13T08:04:26.230Z,11.31
2022-11-13T08:07:13.177Z,11.37
2022-11-13T08:09:58.777Z,11.40
2022-11-13T08:12:44.881Z,11.30
2022-11-13T08:15:31.385Z,11.34
2022-11-13T08:18:17.050Z,11.30
2022-11-13T08:21:04.073Z,11.17
2022-11-13T08:23:50.550Z,11.18
2022-11-13T08:26:38.613Z,11.23
2022-11-13T08:29:24.321Z,11.32
2022-11-13T08:32:10.161Z,11.42
2022-11-13T08:34:55.791Z,11.37
2022-11-13T08:37:41.659Z,11.40
2022-11-13T08:40:27.196Z,11.44
2022-11-13T08:43:12.964Z,11.35
2022-11-13T08:45:58.836Z,11.43
2022-11-13T08:48:44.273Z,11.59
2022-11-13T08:51:29.913Z,11.42
2022-11-13T08:54:15.319Z,11.45
2022-11-13T08:57:05.614Z,11.54
2022-11-13T08:59:51.269Z,11.50
2022-11-13T09:02:36.733Z,11.59
2022-11-13T09:05:23.289Z,11.61
2022-11-13T09:08:08.654Z,11.69
2022-11-13T09:10:53.891Z,11.64
2022-11-13T09:13:44.007Z,11.62
2022-11-13T09:16:31.468Z,11.59
2022-11-13T09:19:16.515Z,11.82
2022-11-13T09:22:02.145Z,11.78
2022-11-13T09:24:47.765Z,11.83
2022-11-13T09:27:33.083Z,11.79
2022-11-13T09:30:18.872Z,11.77
2022-11-13T09:33:04.687Z,11.95
2022-11-13T09:35:50.097Z,11.80
2022-11-13T09:38:35.751Z,11.82
2022-11-13T09:41:25.054Z,11.62
2022-11-13T09:44:29.621Z,11.61
2022-11-13T09:47:28.902Z,11.67
2022-11-13T09:50:18.608Z,11.61
2022-11-13T09:53:04.651Z,11.68
2022-11-13T09:56:24.993Z,11.68
2022-11-13T09:59:30.978Z,11.52
2022-11-13T10:02:53.225Z,11.52
2022-11-13T10:05:58.805Z,11.66
2022-11-13T10:09:01.017Z,11.55
2022-11-13T10:11:52.809Z,11.66
2022-11-13T10:14:46.203Z,11.69
2022-11-13T10:17:37.414Z,11.88
2022-11-13T10:20:28.949Z,11.78
2022-11-13T10:23:15.513Z,11.79
2022-11-13T10:26:12.405Z,11.73
2022-11-13T10:29:09.177Z,11.66
2022-11-13T10:31:54.861Z,11.78
2022-11-13T10:34:41.209Z,11.71
2022-11-13T10:37:57.580Z,11.85
2022-11-13T10:40:43.090Z,11.92
2022-11-13T10:43:28.887Z,12.02
2022-11-13T10:46:20.895Z,11.97
2022-11-13T10:49:32.717Z,12.02
2022-11-13T10:52:29.078Z,12.03
2022-11-13T10:55:39.552Z,12.05
2022-11-13T10:58:25.572Z,12.12
2022-11-13T11:01:23.993Z,12.22
2022-11-13T11:04:29.781Z,12.22
2022-11-13T11:07:21.815Z,12.14
2022-11-13T11:10:20.672Z,12.23
2022-11-13T11:13:10.868Z,12.22
2022-11-13T11:15:59.668Z,12.23
2022-11-13T11:18:54.158Z,12.36
2022-11-13T11:21:42.373Z,12.25
2022-11-13T11:24:35.323Z,12.28
2022-11-13T11:27:37.532Z,12.24
2022-11-13T11:30:26.469Z,12.37
2022-11-13T11:33:31.572Z,12.40
2022-11-13T11:36:31.265Z,12.41
2022-11-13T11:39:19.628Z,12.46
2022-11-13T11:42:11.061Z,12.60
2022-11-13T11:45:18.721Z,12.41
2022-11-13T11:48:15.473Z,12.39
2022-11-13T11:51:30.186Z,12.31
2022-11-13T11:54:21.598Z,12.29
2022-11-13T11:57:21.285Z,12.29
2022-11-13T12:00:12.876Z,12.32
2022-11-13T12:03:14.133Z,12.39
2022-11-13T12:06:21.868Z,12.39
2022-11-13T12:09:19.039Z,12.42
2022-11-13T12:12:42.971Z,12.54
2022-11-13T12:15:52.881Z,12.41
2022-11-13T12:18:56.455Z,12.50
2022-11-13T12:21:52.612Z,12.55
2022-11-13T12:25:19.597Z,12.56
2022-11-13T12:28:25.042Z,12.66
2022-11-13T12:31:22.581Z,12.68
2022-11-13T12:34:21.297Z,12.63
2022-11-13T12:37:14.048Z,12.64
2022-11-13T12:40:07.472Z,12.77
2022-11-13T12:43:30.478Z,12.85
2022-11-13T12:46:16.190Z,12.80
2022-11-13T12:49:01.712Z,12.85
2022-11-13T12:51:58.489Z,12.80
2022-11-13T12:54:44.657Z,12.88
2022-11-13T12:57:33.083Z,12.94
2022-11-13T13:00:29.189Z,12.93
2022-11-13T13:03:39.448Z,12.98
2022-11-13T13:06:59.484Z,13.12
2022-11-13T13:10:22.077Z,13.08
2022-11-13T13:13:24.138Z,13.02
2022-11-13T13:16:10.769Z,13.23
2022-11-13T13:19:08.040Z,13.27
2022-11-13T13:21:53.431Z,13.19
2022-11-13T13:24:39.429Z,13.24
2022-11-13T13:27:27.445Z,13.24
2022-11-13T13:30:17.453Z,13.26
2022-11-13T13:33:23.394Z,13.25
2022-11-13T13:36:38.981Z,13.32
2022-11-13T13:39:33.678Z,13.30
2022-11-13T13:42:43.550Z,13.30
2022-11-13T13:46:11.777Z,13.43
2022-11-13T13:49:03.527Z,13.43
2022-11-13T13:51:51.882Z,13.34
2022-11-13T13:54:37.305Z,13.08
2022-11-13T13:57:23.643Z,13.19
2022-11-13T14:00:13.758Z,13.11
2022-11-13T14:02:59.149Z,13.04
2022-11-13T14:05:44.499Z,13.03
2022-11-13T14:08:30.611Z,13.01
2022-11-13T14:11:18.526Z,13.02
2022-11-13T14:14:11.713Z,13.06
2022-11-13T14:17:00.794Z,13.12
2022-11-13T14:19:53.059Z,13.14
2022-11-13T14:22:39.972Z,13.14
2022-11-13T14:25:27.679Z,13.17
2022-11-13T14:28:17.903Z,13.01
2022-11-13T14:31:08.870Z,13.02
2022-11-13T14:33:54.513Z,12.86
2022-11-13T14:36:41.074Z,12.94
2022-11-13T14:39:30.056Z,12.89
2022-11-13T14:42:37.569Z,12.90
2022-11-13T14:45:26.193Z,12.81
2022-11-13T14:48:22.738Z,12.76
2022-11-13T14:51:23.146Z,12.66
2022-11-13T14:54:53.066Z,12.67
2022-11-13T14:57:48.020Z,12.57
2022-11-13T15:00:36.867Z,12.57
2022-11-13T15:03:22.287Z,12.58
2022-11-13T15:06:14.567Z,12.62
2022-11-13T15:09:00.965Z,12.40
2022-11-13T15:11:46.601Z,12.46
2022-11-13T15:14:33.393Z,12.40
2022-11-13T15:17:20.209Z,12.41
2022-11-13T15:20:09.639Z,12.41
2022-11-13T15:22:56.157Z,12.34
2022-11-13T15:25:42.523Z,12.35
2022-11-13T15:28:28.202Z,12.40
2022-11-13T15:31:21.297Z,12.28
2022-11-13T15:34:06.878Z,12.30
2022-11-13T15:36:52.180Z,12.22
2022-11-13T15:39:37.674Z,12.12
2022-11-13T15:42:34.605Z,12.21
2022-11-13T15:45:20.051Z,12.23
2022-11-13T15:48:09.860Z,12.14
2022-11-13T15:50:55.249Z,12.03
2022-11-13T15:53:40.428Z,11.96
2022-11-13T15:56:26.652Z,11.93
2022-11-13T15:59:13.396Z,11.93
2022-11-13T16:01:59.116Z,11.93
2022-11-13T16:04:56.082Z,11.77
2022-11-13T16:07:42.721Z,11.75
2022-11-13T16:10:28.454Z,11.78
2022-11-13T16:13:13.836Z,11.81
2022-11-13T16:16:00.387Z,11.81
2022-11-13T16:18:46.838Z,11.72
2022-11-13T16:21:32.820Z,11.62
2022-11-13T16:24:22.659Z,11.58
2022-11-13T16:27:13.773Z,11.50
2022-11-13T16:30:03.970Z,11.41
2022-11-13T16:32:54.167Z,11.32
2022-11-13T16:35:40.206Z,11.06
2022-11-13T16:38:25.921Z,11.15
2022-11-13T16:41:12.165Z,11.16
2022-11-13T16:43:58.186Z,11.18
2022-11-13T16:46:48.187Z,11.13
2022-11-13T16:49:33.989Z,10.94
2022-11-13T16:52:19.449Z,11.00
2022-11-13T16:55:06.697Z,11.02
2022-11-13T16:57:53.601Z,11.01
2022-11-13T17:00:39.109Z,10.98
2022-11-13T17:03:24.750Z,10.95
2022-11-13T17:06:21.321Z,10.91
2022-11-13T17:09:08.028Z,10.93
2022-11-13T17:11:53.276Z,10.86
2022-11-13T17:14:39.169Z,10.91
2022-11-13T17:17:24.642Z,10.79
2022-11-13T17:20:11.725Z,10.65
2022-11-13T17:22:57.441Z,10.57
2022-11-13T17:25:43.017Z,10.51
2022-11-13T17:28:29.122Z,10.56
2022-11-13T17:31:14.842Z,10.48
2022-11-13T17:34:00.353Z,10.51
2022-11-13T17:36:45.709Z,10.45
2022-11-13T17:39:31.156Z,10.40
2022-11-13T17:42:16.571Z,10.39
2022-11-13T17:45:02.254Z,10.37
2022-11-13T17:47:48.117Z,10.47
2022-11-13T17:50:34.016Z,10.42
2022-11-13T17:53:20.300Z,10.41
2022-11-13T17:56:08.251Z,10.39
2022-11-13T17:58:54.009Z,10.30
2022-11-13T18:01:40.915Z,10.16
2022-11-13T18:04:26.845Z,10.20
2022-11-13T18:07:12.739Z,10.23
2022-11-13T18:09:58.133Z,10.27
2022-11-13T18:12:43.846Z,10.13
2022-11-13T18:15:30.161Z,10.19
2022-11-13T18:18:15.759Z,10.05
2022-11-13T18:21:22.807Z,9.96
2022-11-13T18:24:16.606Z,10.02
2022-11-13T18:27:03.383Z,9.89
2022-11-13T18:29:48.824Z,10.01
2022-11-13T18:32:34.427Z,9.83
2022-11-13T18:35:19.999Z,9.81
2022-11-13T18:38:05.414Z,9.67
2022-11-13T18:40:51.043Z,9.63
2022-11-13T18:43:37.064Z,9.59
2022-11-13T18:46:23.025Z,9.59
2022-11-13T18:49:09.561Z,9.58
2022-11-13T18:51:54.986Z,9.58
2022-11-13T18:54:40.444Z,9.64
2022-11-13T18:57:25.619Z,9.67
2022-11-13T19:00:11.600Z,9.76
2022-11-13T19:02:58.512Z,9.72
2022-11-13T19:05:48.051Z,9.80
2022-11-13T19:08:39.534Z,9.90
2022-11-13T19:11:27.660Z,9.81
2022-11-13T19:14:14.982Z,9.82
2022-11-13T19:17:00.778Z,9.80
2022-11-13T19:19:46.386Z,9.74
2022-11-13T19:22:32.857Z,9.63
2022-11-13T19:25:18.213Z,9.68
2022-11-13T19:28:03.539Z,9.63
2022-11-13T19:30:49.332Z,9.65
2022-11-13T19:33:35.852Z,9.64
2022-11-13T19:36:21.848Z,9.67
2022-11-13T19:39:07.333Z,9.52
2022-11-13T19:41:52.793Z,9.48
2022-11-13T19:44:38.320Z,9.50
2022-11-13T19:47:23.615Z,9.47
2022-11-13T19:50:10.415Z,9.48
2022-11-13T19:52:56.048Z,9.49
2022-11-13T19:55:41.902Z,9.37
2022-11-13T19:58:27.846Z,9.46
2022-11-13T20:01:15.616Z,9.57
2022-11-13T20:04:02.516Z,9.62
2022-11-13T20:06:48.079Z,9.62
2022-11-13T20:09:33.445Z,9.72
2022-11-13T20:12:18.610Z,9.69
2022-11-13T20:15:04.337Z,9.48
2022-11-13T20:17:49.801Z,9.45
2022-11-13T20:20:35.335Z,9.34
2022-11-13T20:23:20.906Z,9.38
2022-11-13T20:26:08.585Z,9.29
2022-11-13T20:28:54.227Z,9.32
2022-11-13T20:31:39.692Z,9.36
2022-11-13T20:34:26.180Z,9.35
2022-11-13T20:37:11.526Z,9.23
2022-11-13T20:39:57.326Z,9.31
2022-11-13T20:42:42.936Z,9.13
2022-11-13T20:45:28.295Z,9.08
2022-11-13T20:48:13.741Z,9.02
2022-11-13T20:51:05.893Z,8.93
2022-11-13T20:53:51.818Z,9.00
2022-11-13T20:56:36.996Z,9.08
2022-11-13T20:59:22.665Z,9.03
2022-11-13T21:02:09.000Z,9.02
2022-11-13T21:04:54.259Z,9.02
2022-11-13T21:07:39.727Z,8.93
2022-11-13T21:10:25.031Z,8.82
2022-11-13T21:13:10.253Z,8.94
2022-11-13T21:15:55.593Z,8.93
2022-11-13T21:18:40.895Z,8.91
2022-11-13T21:21:28.625Z,9.11
2022-11-13T21:24:14.270Z,9.10
2022-11-13T21:26:59.624Z,9.17
2022-11-13T21:29:44.929Z,9.22
2022-11-13T21:32:30.567Z,9.17
2022-11-13T21:35:19.866Z,9.11
2022-11-13T21:38:07.698Z,9.14
2022-11-13T21:41:19.333Z,9.04
2022-11-13T21:44:06.492Z,9.17
2022-11-13T21:46:52.208Z,9.21
2022-11-13T21:49:37.523Z,9.25
2022-11-13T21:52:22.943Z,9.21
2022-11-13T21:55:09.321Z,9.22
2022-11-13T21:57:54.697Z,9.20
2022-11-13T22:00:40.192Z,9.25
2022-11-13T22:03:26.328Z,9.22
2022-11-13T22:06:33.137Z,9.21
2022-11-13T22:09:21.075Z,9.20
2022-11-13T22:12:06.603Z,9.23
2022-11-13T22:14:51.891Z,9.22
2022-11-13T22:17:37.232Z,9.16
2022-11-13T22:20:22.707Z,9.12
2022-11-13T22:23:08.020Z,9.14
2022-11-13T22:25:57.920Z,9.12
2022-11-13T22:28:44.689Z,9.10
2022-11-13T22:31:31.640Z,9.03
2022-11-13T22:34:18.435Z,9.13
2022-11-13T22:37:04.050Z,9.07
2022-11-13T22:39:49.327Z,8.88
2022-11-13T22:42:34.529Z,9.04
2022-11-13T22:45:24.219Z,9.01
2022-11-13T22:48:10.909Z,9.04
2022-11-13T22:50:56.165Z,9.08
2022-11-13T22:53:43.203Z,9.10
2022-11-13T22:56:31.131Z,9.16
2022-11-13T22:59:16.647Z,9.18
2022-11-13T23:02:02.315Z,9.10
2022-11-13T23:04:47.790Z,8.98
2022-11-13T23:07:34.091Z,9.16
2022-11-13T23:10:19.639Z,9.07
2022-11-13T23:13:05.130Z,8.90
2022-11-13T23:15:54.230Z,8.82
2022-11-13T23:18:40.488Z,8.88
2022-11-13T23:21:27.328Z,8.81
2022-11-13T23:24:12.780Z,8.81
2022-11-13T23:26:58.558Z,8.73
2022-11-13T23:29:48.847Z,8.73
2022-11-13T23:32:35.778Z,8.76
2022-11-13T23:35:21.220Z,8.88
2022-11-13T23:38:06.672Z,8.79
2022-11-13T23:40:56.235Z,8.86
2022-11-13T23:46:47.942Z,8.94
2022-11-13T23:49:36.453Z,8.95
2022-11-13T23:52:22.188Z,8.88
2022-11-13T23:55:08.125Z,8.74
2022-11-13T23:58:04.502Z,8.71
